createdAt,value
2022-11-17T00:00:02.614Z,972.80
2022-11-17T00:00:12.890Z,972.80
2022-11-17T00:00:23.159Z,972.77
2022-11-17T00:00:33.420Z,972.78
2022-11-17T00:00:43.680Z,972.78
2022-11-17T00:00:53.965Z,972.82
2022-11-17T00:01:04.233Z,972.78
2022-11-17T00:01:14.521Z,972.75
2022-11-17T00:01:24.762Z,972.76
2022-11-17T00:01:35.031Z,972.77
2022-11-17T00:01:45.315Z,972.81
2022-11-17T00:01:55.624Z,972.81
2022-11-17T00:02:05.951Z,972.80
2022-11-17T00:02:16.243Z,972.78
2022-11-17T00:02:26.545Z,972.79
2022-11-17T00:02:36.856Z,972.79
2022-11-17T00:02:47.171Z,972.80
2022-11-17T00:02:57.428Z,972.80
2022-11-17T00:03:07.690Z,972.76
2022-11-17T00:03:17.979Z,972.83
2022-11-17T00:03:28.230Z,972.77
2022-11-17T00:03:38.509Z,972.74
2022-11-17T00:03:48.784Z,972.83
2022-11-17T00:03:59.037Z,972.77
2022-11-17T00:04:09.299Z,972.80
2022-11-17T00:04:19.579Z,972.76
2022-11-17T00:04:29.831Z,972.72
2022-11-17T00:04:40.096Z,972.74
2022-11-17T00:04:50.380Z,972.71
2022-11-17T00:05:00.642Z,972.68
2022-11-17T00:05:10.925Z,972.71
2022-11-17T00:05:21.175Z,972.72
2022-11-17T00:05:31.442Z,972.72
2022-11-17T00:05:41.717Z,972.72
2022-11-17T00:05:51.991Z,972.70
2022-11-17T00:06:02.245Z,972.68
2022-11-17T00:06:12.528Z,972.69
2022-11-17T00:06:22.774Z,972.68
2022-11-17T00:06:33.040Z,972.66
2022-11-17T00:06:43.298Z,972.65
2022-11-17T00:06:53.618Z,972.61
2022-11-17T00:07:03.955Z,972.62
2022-11-17T00:07:14.259Z,972.60
2022-11-17T00:07:24.605Z,972.64
2022-11-17T00:07:34.897Z,972.64
2022-11-17T00:07:45.147Z,972.63
2022-11-17T00:07:55.432Z,972.65
2022-11-17T00:08:05.697Z,972.59
2022-11-17T00:08:15.983Z,972.61
2022-11-17T00:08:26.238Z,972.61
2022-11-17T00:08:36.491Z,972.60
2022-11-17T00:08:46.749Z,972.59
2022-11-17T00:08:57.027Z,972.58
2022-11-17T00:09:07.277Z,972.57
2022-11-17T00:09:17.792Z,972.56
2022-11-17T00:09:27.813Z,972.58
2022-11-17T00:09:38.081Z,972.59
2022-11-17T00:09:48.348Z,972.54
2022-11-17T00:09:58.608Z,972.57
2022-11-17T00:10:08.869Z,972.57
2022-11-17T00:10:19.130Z,972.57
2022-11-17T00:10:29.417Z,972.56
2022-11-17T00:10:39.673Z,972.57
2022-11-17T00:10:49.952Z,972.55
2022-11-17T00:11:00.227Z,972.53
2022-11-17T00:11:10.485Z,972.51
2022-11-17T00:11:20.758Z,972.51
2022-11-17T00:11:31.013Z,972.54
2022-11-17T00:11:41.295Z,972.52
2022-11-17T00:11:51.553Z,972.53
2022-11-17T00:12:01.821Z,972.52
2022-11-17T00:12:12.096Z,972.53
2022-11-17T00:12:22.960Z,972.51
2022-11-17T00:12:33.243Z,972.53
2022-11-17T00:12:43.116Z,972.51
2022-11-17T00:12:53.385Z,972.51
2022-11-17T00:13:03.645Z,972.50
2022-11-17T00:13:13.930Z,972.49
2022-11-17T00:13:24.207Z,972.48
2022-11-17T00:13:34.720Z,972.47
2022-11-17T00:13:44.816Z,972.45
2022-11-17T00:13:55.080Z,972.45
2022-11-17T00:14:05.346Z,972.45
2022-11-17T00:14:15.612Z,972.43
2022-11-17T00:14:25.871Z,972.44
2022-11-17T00:14:36.149Z,972.44
2022-11-17T00:14:46.414Z,972.46
2022-11-17T00:14:56.675Z,972.47
2022-11-17T00:15:06.936Z,972.46
2022-11-17T00:15:17.220Z,972.46
2022-11-17T00:15:27.464Z,972.44
2022-11-17T00:15:37.731Z,972.45
2022-11-17T00:15:47.988Z,972.43
2022-11-17T00:15:58.283Z,972.43
2022-11-17T00:16:08.544Z,972.40
2022-11-17T00:16:18.825Z,972.41
2022-11-17T00:16:29.080Z,972.43
2022-11-17T00:16:39.337Z,972.41
2022-11-17T00:16:49.667Z,972.43
2022-11-17T00:16:59.920Z,972.44
2022-11-17T00:17:10.190Z,972.42
2022-11-17T00:17:20.460Z,972.41
2022-11-17T00:17:30.726Z,972.43
2022-11-17T00:17:40.982Z,972.41
2022-11-17T00:17:51.264Z,972.43
2022-11-17T00:18:01.529Z,972.43
2022-11-17T00:18:11.807Z,972.40
2022-11-17T00:18:22.075Z,972.40
2022-11-17T00:18:32.344Z,972.39
2022-11-17T00:18:42.655Z,972.43
2022-11-17T00:18:52.878Z,972.38
2022-11-17T00:19:03.146Z,972.35
2022-11-17T00:19:13.410Z,972.37
2022-11-17T00:19:23.673Z,972.33
2022-11-17T00:19:33.940Z,972.36
2022-11-17T00:19:44.200Z,972.37
2022-11-17T00:19:54.473Z,972.36
2022-11-17T00:20:04.728Z,972.36
2022-11-17T00:20:14.990Z,972.36
2022-11-17T00:20:25.251Z,972.33
2022-11-17T00:20:35.515Z,972.30
2022-11-17T00:20:45.805Z,972.30
2022-11-17T00:20:56.091Z,972.28
2022-11-17T00:21:06.364Z,972.28
2022-11-17T00:21:16.624Z,972.27
2022-11-17T00:21:26.876Z,972.30
2022-11-17T00:21:37.159Z,972.30
2022-11-17T00:21:47.427Z,972.26
2022-11-17T00:21:57.675Z,972.31
2022-11-17T00:22:07.942Z,972.27
2022-11-17T00:22:18.220Z,972.23
2022-11-17T00:22:28.480Z,972.24
2022-11-17T00:22:38.757Z,972.24
2022-11-17T00:22:49.061Z,972.27
2022-11-17T00:22:59.290Z,972.25
2022-11-17T00:23:09.571Z,972.22
2022-11-17T00:23:19.826Z,972.21
2022-11-17T00:23:30.092Z,972.24
2022-11-17T00:23:40.379Z,972.25
2022-11-17T00:23:51.029Z,972.22
2022-11-17T00:24:00.909Z,972.25
2022-11-17T00:24:11.170Z,972.24
2022-11-17T00:24:21.432Z,972.22
2022-11-17T00:24:31.706Z,972.18
2022-11-17T00:24:41.971Z,972.20
2022-11-17T00:24:52.238Z,972.23
2022-11-17T00:25:02.517Z,972.22
2022-11-17T00:25:12.775Z,972.20
2022-11-17T00:25:23.054Z,972.19
2022-11-17T00:25:33.330Z,972.20
2022-11-17T00:25:43.595Z,972.22
2022-11-17T00:25:53.850Z,972.22
2022-11-17T00:26:04.130Z,972.23
2022-11-17T00:26:14.398Z,972.27
2022-11-17T00:26:24.656Z,972.18
2022-11-17T00:26:34.921Z,972.16
2022-11-17T00:26:45.180Z,972.18
2022-11-17T00:26:55.440Z,972.21
2022-11-17T00:27:05.715Z,972.23
2022-11-17T00:27:15.970Z,972.20
2022-11-17T00:27:26.242Z,972.20
2022-11-17T00:27:36.536Z,972.20
2022-11-17T00:27:46.801Z,972.18
2022-11-17T00:27:57.052Z,972.15
2022-11-17T00:28:07.318Z,972.14
2022-11-17T00:28:17.579Z,972.17
2022-11-17T00:28:27.846Z,972.20
2022-11-17T00:28:38.117Z,972.17
2022-11-17T00:28:48.368Z,972.14
2022-11-17T00:28:58.644Z,972.10
2022-11-17T00:29:08.904Z,972.08
2022-11-17T00:29:19.167Z,972.11
2022-11-17T00:29:29.431Z,972.12
2022-11-17T00:29:39.693Z,972.11
2022-11-17T00:29:49.993Z,972.12
2022-11-17T00:30:00.263Z,972.13
2022-11-17T00:30:10.544Z,972.07
2022-11-17T00:30:20.792Z,972.07
2022-11-17T00:30:31.064Z,972.07
2022-11-17T00:30:43.839Z,972.06
2022-11-17T00:30:51.701Z,972.09
2022-11-17T00:31:01.997Z,972.07
2022-11-17T00:31:12.246Z,972.05
2022-11-17T00:31:22.521Z,972.07
2022-11-17T00:31:32.778Z,972.05
2022-11-17T00:31:43.054Z,972.06
2022-11-17T00:31:53.302Z,972.05
2022-11-17T00:32:03.561Z,972.05
2022-11-17T00:32:13.825Z,972.03
2022-11-17T00:32:24.084Z,972.04
2022-11-17T00:32:34.352Z,972.05
2022-11-17T00:32:44.632Z,972.03
2022-11-17T00:32:54.905Z,972.02
2022-11-17T00:33:05.175Z,972.01
2022-11-17T00:33:15.430Z,972.01
2022-11-17T00:33:25.690Z,971.98
2022-11-17T00:33:36.248Z,972.01
2022-11-17T00:33:46.276Z,972.02
2022-11-17T00:33:56.542Z,972.02
2022-11-17T00:34:06.867Z,972.02
2022-11-17T00:34:17.138Z,972.01
2022-11-17T00:34:27.407Z,972.01
2022-11-17T00:34:37.723Z,972.00
2022-11-17T00:34:47.987Z,972.00
2022-11-17T00:34:58.256Z,972.01
2022-11-17T00:35:08.554Z,972.01
2022-11-17T00:35:18.795Z,972.00
2022-11-17T00:35:29.063Z,972.01
2022-11-17T00:35:39.345Z,972.02
2022-11-17T00:35:49.609Z,972.01
2022-11-17T00:35:59.857Z,972.03
2022-11-17T00:36:10.143Z,972.02
2022-11-17T00:36:20.436Z,972.01
2022-11-17T00:36:30.671Z,971.98
2022-11-17T00:36:40.949Z,971.98
2022-11-17T00:36:51.217Z,971.97
2022-11-17T00:37:01.481Z,971.97
2022-11-17T00:37:11.746Z,971.94
2022-11-17T00:37:22.027Z,971.96
2022-11-17T00:37:32.288Z,971.97
2022-11-17T00:37:42.557Z,971.94
2022-11-17T00:37:52.818Z,971.95
2022-11-17T00:38:03.101Z,971.97
2022-11-17T00:38:13.355Z,971.95
2022-11-17T00:38:23.640Z,971.92
2022-11-17T00:38:33.907Z,971.92
2022-11-17T00:38:44.163Z,971.92
2022-11-17T00:38:54.449Z,971.95
2022-11-17T00:39:04.711Z,971.95
2022-11-17T00:39:14.961Z,971.94
2022-11-17T00:39:25.242Z,971.93
2022-11-17T00:39:35.507Z,971.87
2022-11-17T00:39:45.765Z,971.88
2022-11-17T00:40:00.590Z,971.89
2022-11-17T00:40:06.378Z,971.90
2022-11-17T00:40:16.633Z,971.95
2022-11-17T00:40:26.898Z,971.91
2022-11-17T00:40:37.157Z,971.90
2022-11-17T00:40:47.434Z,971.90
2022-11-17T00:40:57.683Z,971.88
2022-11-17T00:41:07.982Z,971.90
2022-11-17T00:41:18.240Z,971.87
2022-11-17T00:41:28.507Z,971.88
2022-11-17T00:41:38.767Z,971.89
2022-11-17T00:41:49.039Z,971.90
2022-11-17T00:41:59.304Z,971.91
2022-11-17T00:42:09.564Z,971.93
2022-11-17T00:42:19.830Z,971.91
2022-11-17T00:42:30.093Z,971.88
2022-11-17T00:42:40.352Z,971.89
2022-11-17T00:42:50.643Z,971.91
2022-11-17T00:43:00.901Z,971.90
2022-11-17T00:43:11.161Z,971.89
2022-11-17T00:43:21.424Z,971.90
2022-11-17T00:43:31.761Z,971.89
2022-11-17T00:43:42.028Z,971.87
2022-11-17T00:43:52.286Z,971.89
2022-11-17T00:44:02.569Z,971.88
2022-11-17T00:44:12.832Z,971.87
2022-11-17T00:44:23.124Z,971.85
2022-11-17T00:44:33.409Z,971.84
2022-11-17T00:44:43.682Z,971.84
2022-11-17T00:44:53.953Z,971.82
2022-11-17T00:45:04.224Z,971.82
2022-11-17T00:45:14.507Z,971.85
2022-11-17T00:45:24.748Z,971.80
2022-11-17T00:45:35.016Z,971.80
2022-11-17T00:45:45.306Z,971.80
2022-11-17T00:45:55.566Z,971.79
2022-11-17T00:46:05.838Z,971.79
2022-11-17T00:46:16.130Z,971.78
2022-11-17T00:46:26.404Z,971.76
2022-11-17T00:46:36.651Z,971.75
2022-11-17T00:46:46.918Z,971.78
2022-11-17T00:46:57.181Z,971.76
2022-11-17T00:47:07.450Z,971.75
2022-11-17T00:47:17.708Z,971.73
2022-11-17T00:47:27.973Z,971.73
2022-11-17T00:47:38.233Z,971.72
2022-11-17T00:47:48.496Z,971.71
2022-11-17T00:47:58.758Z,971.68
2022-11-17T00:48:09.020Z,971.70
2022-11-17T00:48:19.285Z,971.75
2022-11-17T00:48:29.567Z,971.70
2022-11-17T00:48:39.821Z,971.71
2022-11-17T00:48:50.092Z,971.67
2022-11-17T00:49:00.345Z,971.67
2022-11-17T00:49:10.620Z,971.67
2022-11-17T00:49:20.882Z,971.69
2022-11-17T00:49:31.148Z,971.65
2022-11-17T00:49:41.417Z,971.66
2022-11-17T00:49:51.680Z,971.65
2022-11-17T00:50:01.947Z,971.66
2022-11-17T00:50:12.207Z,971.67
2022-11-17T00:50:22.478Z,971.65
2022-11-17T00:50:32.730Z,971.66
2022-11-17T00:50:43.002Z,971.57
2022-11-17T00:50:53.261Z,971.65
2022-11-17T00:51:03.519Z,971.62
2022-11-17T00:51:13.799Z,971.65
2022-11-17T00:51:24.173Z,971.61
2022-11-17T00:51:34.381Z,971.62
2022-11-17T00:51:44.645Z,971.62
2022-11-17T00:51:54.908Z,971.60
2022-11-17T00:52:05.170Z,971.60
2022-11-17T00:52:15.435Z,971.58
2022-11-17T00:52:25.697Z,971.58
2022-11-17T00:52:35.981Z,971.59
2022-11-17T00:52:46.222Z,971.58
2022-11-17T00:52:56.493Z,971.58
2022-11-17T00:53:06.740Z,971.60
2022-11-17T00:53:17.038Z,971.54
2022-11-17T00:53:27.265Z,971.55
2022-11-17T00:53:37.931Z,971.53
2022-11-17T00:53:47.805Z,971.55
2022-11-17T00:53:58.108Z,971.52
2022-11-17T00:54:08.356Z,971.51
2022-11-17T00:54:18.673Z,971.48
2022-11-17T00:54:28.911Z,971.50
2022-11-17T00:54:39.178Z,971.48
2022-11-17T00:54:49.433Z,971.50
2022-11-17T00:54:59.721Z,971.51
2022-11-17T00:55:10.018Z,971.48
2022-11-17T00:55:20.305Z,971.48
2022-11-17T00:55:30.641Z,971.47
2022-11-17T00:55:40.982Z,971.47
2022-11-17T00:55:51.324Z,971.47
2022-11-17T00:56:01.584Z,971.49
2022-11-17T00:56:11.872Z,971.48
2022-11-17T00:56:22.125Z,971.47
2022-11-17T00:56:32.388Z,971.47
2022-11-17T00:56:42.653Z,971.47
2022-11-17T00:56:52.912Z,971.46
2022-11-17T00:57:03.178Z,971.44
2022-11-17T00:57:13.441Z,971.46
2022-11-17T00:57:23.703Z,971.47
2022-11-17T00:57:33.973Z,971.47
2022-11-17T00:57:44.230Z,971.49
2022-11-17T00:57:54.492Z,971.48
2022-11-17T00:58:04.757Z,971.46
2022-11-17T00:58:15.030Z,971.44
2022-11-17T00:58:25.278Z,971.47
2022-11-17T00:58:35.544Z,971.45
2022-11-17T00:58:45.800Z,971.40
2022-11-17T00:58:56.074Z,971.42
2022-11-17T00:59:06.344Z,971.47
2022-11-17T00:59:16.603Z,971.46
2022-11-17T00:59:26.866Z,971.45
2022-11-17T00:59:37.152Z,971.45
2022-11-17T00:59:47.406Z,971.40
2022-11-17T00:59:57.656Z,971.38
2022-11-17T01:00:07.927Z,971.42
2022-11-17T01:00:18.187Z,971.46
2022-11-17T01:00:28.448Z,971.45
2022-11-17T01:00:38.728Z,971.46
2022-11-17T01:00:49.021Z,971.41
2022-11-17T01:00:59.271Z,971.34
2022-11-17T01:01:09.565Z,971.43
2022-11-17T01:01:19.939Z,971.41
2022-11-17T01:01:30.346Z,971.39
2022-11-17T01:01:40.539Z,971.41
2022-11-17T01:01:50.745Z,971.41
2022-11-17T01:02:01.007Z,971.38
2022-11-17T01:02:11.285Z,971.41
2022-11-17T01:02:21.547Z,971.40
2022-11-17T01:02:31.808Z,971.44
2022-11-17T01:02:42.071Z,971.43
2022-11-17T01:02:52.340Z,971.39
2022-11-17T01:03:02.631Z,971.40
2022-11-17T01:03:12.864Z,971.39
2022-11-17T01:03:23.137Z,971.38
2022-11-17T01:03:33.804Z,971.40
2022-11-17T01:03:43.759Z,971.41
2022-11-17T01:03:54.024Z,971.37
2022-11-17T01:04:04.492Z,971.40
2022-11-17T01:04:14.669Z,971.40
2022-11-17T01:04:24.914Z,971.39
2022-11-17T01:04:35.177Z,971.36
2022-11-17T01:04:45.447Z,971.36
2022-11-17T01:04:55.704Z,971.37
2022-11-17T01:05:05.964Z,971.39
2022-11-17T01:05:16.231Z,971.38
2022-11-17T01:05:30.327Z,971.36
2022-11-17T01:05:37.933Z,971.36
2022-11-17T01:05:47.334Z,971.35
2022-11-17T01:05:57.633Z,971.36
2022-11-17T01:06:07.859Z,971.34
2022-11-17T01:06:18.140Z,971.37
2022-11-17T01:06:28.525Z,971.34
2022-11-17T01:06:38.737Z,971.28
2022-11-17T01:06:49.104Z,971.33
2022-11-17T01:06:59.485Z,971.29
2022-11-17T01:07:09.761Z,971.32
2022-11-17T01:07:20.035Z,971.30
2022-11-17T01:07:30.414Z,971.28
2022-11-17T01:07:40.727Z,971.32
2022-11-17T01:07:50.973Z,971.31
2022-11-17T01:08:01.239Z,971.32
2022-11-17T01:08:11.495Z,971.29
2022-11-17T01:08:21.765Z,971.27
2022-11-17T01:08:32.023Z,971.29
2022-11-17T01:08:42.282Z,971.31
2022-11-17T01:08:52.545Z,971.34
2022-11-17T01:09:02.809Z,971.31
2022-11-17T01:09:13.083Z,971.24
2022-11-17T01:09:23.340Z,971.26
2022-11-17T01:09:33.598Z,971.28
2022-11-17T01:09:43.863Z,971.27
2022-11-17T01:09:54.126Z,971.29
2022-11-17T01:10:04.396Z,971.30
2022-11-17T01:10:14.665Z,971.32
2022-11-17T01:10:24.920Z,971.33
2022-11-17T01:10:35.184Z,971.32
2022-11-17T01:10:45.456Z,971.33
2022-11-17T01:10:55.746Z,971.22
2022-11-17T01:11:06.010Z,971.27
2022-11-17T01:11:16.288Z,971.27
2022-11-17T01:11:26.554Z,971.20
2022-11-17T01:11:36.818Z,971.27
2022-11-17T01:11:47.090Z,971.27
2022-11-17T01:11:57.346Z,971.30
2022-11-17T01:12:07.612Z,971.27
2022-11-17T01:12:17.903Z,971.28
2022-11-17T01:12:28.145Z,971.28
2022-11-17T01:12:38.402Z,971.28
2022-11-17T01:12:48.663Z,971.27
2022-11-17T01:12:58.924Z,971.26
2022-11-17T01:13:09.217Z,971.23
2022-11-17T01:13:19.463Z,971.26
2022-11-17T01:13:29.728Z,971.24
2022-11-17T01:13:39.990Z,971.23
2022-11-17T01:13:50.273Z,971.25
2022-11-17T01:14:00.531Z,971.26
2022-11-17T01:14:10.800Z,971.28
2022-11-17T01:14:21.060Z,971.25
2022-11-17T01:14:31.328Z,971.27
2022-11-17T01:14:41.581Z,971.19
2022-11-17T01:14:51.843Z,971.18
2022-11-17T01:15:02.118Z,971.25
2022-11-17T01:15:12.370Z,971.20
2022-11-17T01:15:22.631Z,971.22
2022-11-17T01:15:32.898Z,971.21
2022-11-17T01:15:43.163Z,971.20
2022-11-17T01:15:53.424Z,971.22
2022-11-17T01:16:03.686Z,971.20
2022-11-17T01:16:13.951Z,971.20
2022-11-17T01:16:24.239Z,971.14
2022-11-17T01:16:34.497Z,971.22
2022-11-17T01:16:44.760Z,971.19
2022-11-17T01:16:55.018Z,971.18
2022-11-17T01:17:05.278Z,971.18
2022-11-17T01:17:15.554Z,971.20
2022-11-17T01:17:25.807Z,971.18
2022-11-17T01:17:36.076Z,971.19
2022-11-17T01:17:46.337Z,971.15
2022-11-17T01:17:56.608Z,971.15
2022-11-17T01:18:06.902Z,971.14
2022-11-17T01:18:17.195Z,971.13
2022-11-17T01:18:27.486Z,971.13
2022-11-17T01:18:37.756Z,971.16
2022-11-17T01:18:48.051Z,971.16
2022-11-17T01:18:58.289Z,971.17
2022-11-17T01:19:08.609Z,971.18
2022-11-17T01:19:18.899Z,971.12
2022-11-17T01:19:29.145Z,971.16
2022-11-17T01:19:39.425Z,971.23
2022-11-17T01:19:49.678Z,971.12
2022-11-17T01:19:59.937Z,971.15
2022-11-17T01:20:10.200Z,971.18
2022-11-17T01:20:20.476Z,971.17
2022-11-17T01:20:30.733Z,971.16
2022-11-17T01:20:40.995Z,971.15
2022-11-17T01:20:51.273Z,971.17
2022-11-17T01:21:01.538Z,971.16
2022-11-17T01:21:11.797Z,971.17
2022-11-17T01:21:22.078Z,971.18
2022-11-17T01:21:32.448Z,971.19
2022-11-17T01:21:42.657Z,971.14
2022-11-17T01:21:52.922Z,971.14
2022-11-17T01:22:03.196Z,971.13
2022-11-17T01:22:13.464Z,971.15
2022-11-17T01:22:23.751Z,971.15
2022-11-17T01:22:34.045Z,971.16
2022-11-17T01:22:44.282Z,971.17
2022-11-17T01:22:54.545Z,971.14
2022-11-17T01:23:04.809Z,971.13
2022-11-17T01:23:15.093Z,971.15
2022-11-17T01:23:25.383Z,971.15
2022-11-17T01:23:35.841Z,971.15
2022-11-17T01:23:45.943Z,971.14
2022-11-17T01:23:56.214Z,971.13
2022-11-17T01:24:09.456Z,971.13
2022-11-17T01:24:16.721Z,971.18
2022-11-17T01:24:26.975Z,971.18
2022-11-17T01:24:37.228Z,971.17
2022-11-17T01:24:47.493Z,971.13
2022-11-17T01:24:57.758Z,971.15
2022-11-17T01:25:08.014Z,971.16
2022-11-17T01:25:18.281Z,971.12
2022-11-17T01:25:28.566Z,971.16
2022-11-17T01:25:38.860Z,971.13
2022-11-17T01:25:49.110Z,971.16
2022-11-17T01:25:59.370Z,971.16
2022-11-17T01:26:09.651Z,971.12
2022-11-17T01:26:19.937Z,971.17
2022-11-17T01:26:30.208Z,971.13
2022-11-17T01:26:40.481Z,971.12
2022-11-17T01:26:50.757Z,971.11
2022-11-17T01:27:01.035Z,971.14
2022-11-17T01:27:11.314Z,971.14
2022-11-17T01:27:21.581Z,971.14
2022-11-17T01:27:31.845Z,971.13
2022-11-17T01:27:42.105Z,971.12
2022-11-17T01:27:52.372Z,971.13
2022-11-17T01:28:02.658Z,971.11
2022-11-17T01:28:12.922Z,971.12
2022-11-17T01:28:23.197Z,971.15
2022-11-17T01:28:33.469Z,971.14
2022-11-17T01:28:43.725Z,971.18
2022-11-17T01:28:53.990Z,971.19
2022-11-17T01:29:04.261Z,971.20
2022-11-17T01:29:14.547Z,971.15
2022-11-17T01:29:24.799Z,971.14
2022-11-17T01:29:35.083Z,971.11
2022-11-17T01:29:45.346Z,971.14
2022-11-17T01:29:55.608Z,971.14
2022-11-17T01:30:05.890Z,971.14
2022-11-17T01:30:16.167Z,971.14
2022-11-17T01:30:26.433Z,971.11
2022-11-17T01:30:36.693Z,971.11
2022-11-17T01:30:46.976Z,971.14
2022-11-17T01:30:57.229Z,971.14
2022-11-17T01:31:07.491Z,971.14
2022-11-17T01:31:17.756Z,971.14
2022-11-17T01:31:28.041Z,971.14
2022-11-17T01:31:38.317Z,971.10
2022-11-17T01:31:48.586Z,971.10
2022-11-17T01:31:58.886Z,971.11
2022-11-17T01:32:09.139Z,971.13
2022-11-17T01:32:19.419Z,971.08
2022-11-17T01:32:29.677Z,971.08
2022-11-17T01:32:39.932Z,971.08
2022-11-17T01:32:50.198Z,971.07
2022-11-17T01:33:00.476Z,971.08
2022-11-17T01:33:10.763Z,971.10
2022-11-17T01:33:21.048Z,971.06
2022-11-17T01:33:31.421Z,971.05
2022-11-17T01:33:41.662Z,971.05
2022-11-17T01:33:51.928Z,971.06
2022-11-17T01:34:02.188Z,971.06
2022-11-17T01:34:12.471Z,971.10
2022-11-17T01:34:22.736Z,971.07
2022-11-17T01:34:33.003Z,971.05
2022-11-17T01:34:43.268Z,971.07
2022-11-17T01:34:53.542Z,971.07
2022-11-17T01:35:03.803Z,971.06
2022-11-17T01:35:14.067Z,971.02
2022-11-17T01:35:24.329Z,971.02
2022-11-17T01:35:34.592Z,971.03
2022-11-17T01:35:44.850Z,971.03
2022-11-17T01:35:55.143Z,971.01
2022-11-17T01:36:05.388Z,971.02
2022-11-17T01:36:15.652Z,971.03
2022-11-17T01:36:25.941Z,971.05
2022-11-17T01:36:36.331Z,971.00
2022-11-17T01:36:46.538Z,971.03
2022-11-17T01:36:56.803Z,971.03
2022-11-17T01:37:07.075Z,971.00
2022-11-17T01:37:17.351Z,970.94
2022-11-17T01:37:27.637Z,970.98
2022-11-17T01:37:37.903Z,970.97
2022-11-17T01:37:48.178Z,970.98
2022-11-17T01:37:58.449Z,970.96
2022-11-17T01:38:08.723Z,970.98
2022-11-17T01:38:19.003Z,970.96
2022-11-17T01:38:29.258Z,970.97
2022-11-17T01:38:39.518Z,970.94
2022-11-17T01:38:49.784Z,970.92
2022-11-17T01:39:00.046Z,970.92
2022-11-17T01:39:10.318Z,970.93
2022-11-17T01:39:20.584Z,970.93
2022-11-17T01:39:30.849Z,970.90
2022-11-17T01:39:41.119Z,970.92
2022-11-17T01:39:51.379Z,970.89
2022-11-17T01:40:01.671Z,970.91
2022-11-17T01:40:11.922Z,970.91
2022-11-17T01:40:22.196Z,970.91
2022-11-17T01:40:32.457Z,970.91
2022-11-17T01:40:42.747Z,970.92
2022-11-17T01:40:53.024Z,970.97
2022-11-17T01:41:03.295Z,970.91
2022-11-17T01:41:13.581Z,970.89
2022-11-17T01:41:23.890Z,970.92
2022-11-17T01:41:34.146Z,970.89
2022-11-17T01:41:44.406Z,970.91
2022-11-17T01:41:54.677Z,970.86
2022-11-17T01:42:04.943Z,970.91
2022-11-17T01:42:15.206Z,970.90
2022-11-17T01:42:25.463Z,970.88
2022-11-17T01:42:35.747Z,970.87
2022-11-17T01:42:46.001Z,970.87
2022-11-17T01:42:56.267Z,970.90
2022-11-17T01:43:06.531Z,970.89
2022-11-17T01:43:16.808Z,970.92
2022-11-17T01:43:27.070Z,970.91
2022-11-17T01:43:37.600Z,970.92
2022-11-17T01:43:47.580Z,970.90
2022-11-17T01:43:57.842Z,970.86
2022-11-17T01:44:08.128Z,970.84
2022-11-17T01:44:18.390Z,970.85
2022-11-17T01:44:28.657Z,970.86
2022-11-17T01:44:38.914Z,970.87
2022-11-17T01:44:49.179Z,970.90
2022-11-17T01:44:59.466Z,970.88
2022-11-17T01:45:09.702Z,970.86
2022-11-17T01:45:19.990Z,970.88
2022-11-17T01:45:30.238Z,970.83
2022-11-17T01:45:40.503Z,970.86
2022-11-17T01:45:50.792Z,970.85
2022-11-17T01:46:01.047Z,970.88
2022-11-17T01:46:11.328Z,970.83
2022-11-17T01:46:21.636Z,970.83
2022-11-17T01:46:31.896Z,970.83
2022-11-17T01:46:42.154Z,970.82
2022-11-17T01:46:55.760Z,970.81
2022-11-17T01:47:03.634Z,970.84
2022-11-17T01:47:13.032Z,970.77
2022-11-17T01:47:23.290Z,970.79
2022-11-17T01:47:33.564Z,970.79
2022-11-17T01:47:43.820Z,970.78
2022-11-17T01:47:54.083Z,970.77
2022-11-17T01:48:04.345Z,970.77
2022-11-17T01:48:14.612Z,970.77
2022-11-17T01:48:24.867Z,970.76
2022-11-17T01:48:35.129Z,970.73
2022-11-17T01:48:45.392Z,970.74
2022-11-17T01:48:55.657Z,970.75
2022-11-17T01:49:05.930Z,970.74
2022-11-17T01:49:16.183Z,970.74
2022-11-17T01:49:26.452Z,970.73
2022-11-17T01:49:36.716Z,970.73
2022-11-17T01:49:46.979Z,970.75
2022-11-17T01:49:57.242Z,970.73
2022-11-17T01:50:07.505Z,970.72
2022-11-17T01:50:17.768Z,970.71
2022-11-17T01:50:28.031Z,970.70
2022-11-17T01:50:38.294Z,970.71
2022-11-17T01:50:48.558Z,970.71
2022-11-17T01:50:58.825Z,970.72
2022-11-17T01:51:09.084Z,970.71
2022-11-17T01:51:19.350Z,970.70
2022-11-17T01:51:29.610Z,970.71
2022-11-17T01:51:40.007Z,970.68
2022-11-17T01:51:50.222Z,970.69
2022-11-17T01:52:00.501Z,970.71
2022-11-17T01:52:10.744Z,970.69
2022-11-17T01:52:21.006Z,970.70
2022-11-17T01:52:31.269Z,970.71
2022-11-17T01:52:41.532Z,970.68
2022-11-17T01:52:51.792Z,970.67
2022-11-17T01:53:02.058Z,970.69
2022-11-17T01:53:12.325Z,970.69
2022-11-17T01:53:22.586Z,970.69
2022-11-17T01:53:33.149Z,970.68
2022-11-17T01:53:43.093Z,970.63
2022-11-17T01:53:53.352Z,970.62
2022-11-17T01:54:03.615Z,970.65
2022-11-17T01:54:13.880Z,970.65
2022-11-17T01:54:24.145Z,970.65
2022-11-17T01:54:34.408Z,970.63
2022-11-17T01:54:44.667Z,970.63
2022-11-17T01:54:54.930Z,970.61
2022-11-17T01:55:05.200Z,970.60
2022-11-17T01:55:15.457Z,970.61
2022-11-17T01:55:25.732Z,970.63
2022-11-17T01:55:35.984Z,970.63
2022-11-17T01:55:46.245Z,970.59
2022-11-17T01:55:56.510Z,970.59
2022-11-17T01:56:06.771Z,970.57
2022-11-17T01:56:17.035Z,970.58
2022-11-17T01:56:27.300Z,970.58
2022-11-17T01:56:37.578Z,970.63
2022-11-17T01:56:47.839Z,970.58
2022-11-17T01:56:58.097Z,970.57
2022-11-17T01:57:08.358Z,970.58
2022-11-17T01:57:18.646Z,970.60
2022-11-17T01:57:28.853Z,970.57
2022-11-17T01:57:39.115Z,970.60
2022-11-17T01:57:49.372Z,970.60
2022-11-17T01:57:59.640Z,970.57
2022-11-17T01:58:09.907Z,970.56
2022-11-17T01:58:20.171Z,970.58
2022-11-17T01:58:30.424Z,970.56
2022-11-17T01:58:40.694Z,970.59
2022-11-17T01:58:50.958Z,970.57
2022-11-17T01:59:01.223Z,970.58
2022-11-17T01:59:11.479Z,970.57
2022-11-17T01:59:21.742Z,970.58
2022-11-17T01:59:32.003Z,970.61
2022-11-17T01:59:42.271Z,970.58
2022-11-17T01:59:52.532Z,970.60
2022-11-17T02:00:02.798Z,970.58
2022-11-17T02:00:13.072Z,970.56
2022-11-17T02:00:23.320Z,970.57
2022-11-17T02:00:33.585Z,970.55
2022-11-17T02:00:43.859Z,970.61
2022-11-17T02:00:54.110Z,970.59
2022-11-17T02:01:04.375Z,970.55
2022-11-17T02:01:14.713Z,970.51
2022-11-17T02:01:24.988Z,970.54
2022-11-17T02:01:35.349Z,970.51
2022-11-17T02:01:45.675Z,970.52
2022-11-17T02:01:56.157Z,970.51
2022-11-17T02:02:06.262Z,970.51
2022-11-17T02:02:16.503Z,970.51
2022-11-17T02:02:26.767Z,970.52
2022-11-17T02:02:37.027Z,970.51
2022-11-17T02:02:47.312Z,970.52
2022-11-17T02:02:57.561Z,970.50
2022-11-17T02:03:07.858Z,970.48
2022-11-17T02:03:18.108Z,970.48
2022-11-17T02:03:28.362Z,970.48
2022-11-17T02:03:38.820Z,970.45
2022-11-17T02:03:48.859Z,970.50
2022-11-17T02:03:59.114Z,970.50
2022-11-17T02:04:09.376Z,970.45
2022-11-17T02:04:19.641Z,970.47
2022-11-17T02:04:29.904Z,970.44
2022-11-17T02:04:40.166Z,970.44
2022-11-17T02:04:50.450Z,970.45
2022-11-17T02:05:00.720Z,970.46
2022-11-17T02:05:10.998Z,970.48
2022-11-17T02:05:21.244Z,970.40
2022-11-17T02:05:31.508Z,970.47
2022-11-17T02:05:41.768Z,970.45
2022-11-17T02:05:52.030Z,970.45
2022-11-17T02:06:02.304Z,970.44
2022-11-17T02:06:12.564Z,970.44
2022-11-17T02:06:22.823Z,970.45
2022-11-17T02:06:33.090Z,970.46
2022-11-17T02:06:43.476Z,970.47
2022-11-17T02:06:53.762Z,970.46
2022-11-17T02:07:04.079Z,970.45
2022-11-17T02:07:14.397Z,970.45
2022-11-17T02:07:24.754Z,970.45
2022-11-17T02:07:34.990Z,970.49
2022-11-17T02:07:45.245Z,970.48
2022-11-17T02:07:55.516Z,970.46
2022-11-17T02:08:05.767Z,970.45